Time,TemperatureF,DewpointF,PressureIn,WindDirection,WindDirectionDegrees,WindSpeedMPH,WindSpeedGustMPH,Humidity,HourlyPrecipIn,Conditions,Clouds,dailyrainin,SoftwareType,DateUTC
2013-05-04 00:00:00,-9.1,-15.4,29.25,NE,40,20.0,20.0,73,0.00,CLR,,0.00,WeatherDisplay:10.37,2013-05-03 12:00:00,
2013-05-04 00:15:00,-9.3,-15.6,29.26,NE,40,17.0,20.0,73,0.00,CLR,,0.00,WeatherDisplay:10.37,2013-05-03 12:15:00,
2013-05-04 00:30:00,-9.2,-15.5,29.26,NE,41,17.0,17.0,73,0.00,CLR,,0.00,WeatherDisplay:10.37,2013-05-03 12:30:00,
2013-05-04 00:45:00,-8.9,-15.2,29.26,NE,43,17.0,17.0,73,0.00,CLR,,0.00,WeatherDisplay:10.37,2013-05-03 12:45:00,
2013-05-04 01:00:00,-8.9,-15.2,29.26,NE,42,18.0,18.0,73,0.00,CLR,,0.00,WeatherDisplay:10.37,2013-05-03 13:00:00,
2013-05-04 01:15:00,-8.5,-14.9,29.26,NE,42,18.0,18.0,73,0.00,CLR,,0.00,WeatherDisplay:10.37,2013-05-03 13:15:00,
2013-05-04 01:30:00,-8.6,-14.9,29.26,NE,40,17.0,18.0,73,0.00,CLR,,0.00,WeatherDisplay:10.37,2013-05-03 13:30:00,
2013-05-04 01:45:00,-8.9,-15.0,29.26,NE,42,17.0,17.0,74,0.00,CLR,,0.00,WeatherDisplay:10.37,2013-05-03 13:45:00,
2013-05-04 02:00:00,-9.0,-15.1,29.26,NE,51,16.0,17.0,74,0.00,CLR,,0.00,WeatherDisplay:10.37,2013-05-03 14:00:00,
2013-05-04 02:15:00,-9.3,-15.6,29.26,NE,47,16.0,16.0,73,0.00,CLR,,0.00,WeatherDisplay:10.37,2013-05-03 14:15:00,
2013-05-04 02:30:00,-9.3,-15.6,29.26,NE,52,16.0,16.0,73,0.00,CLR,,0.00,WeatherDisplay:10.37,2013-05-03 14:30:00,
2013-05-04 02:45:00,-9.2,-15.3,29.26,NE,45,15.0,16.0,74,0.00,CLR,,0.00,WeatherDisplay:10.37,2013-05-03 14:45:00,
2013-05-04 03:00:00,-9.2,-15.0,29.26,NE,42,16.0,16.0,75,0.00,CLR,,0.00,WeatherDisplay:10.37,2013-05-03 15:00:00,
2013-05-04 03:15:00,-9.6,-14.8,29.26,NE,41,16.0,16.0,77,0.00,CLR,,0.00,WeatherDisplay:10.37,2013-05-03 15:15:00,
2013-05-04 03:30:00,-9.9,-15.4,29.26,NE,56,16.0,16.0,76,0.00,CLR,,0.00,WeatherDisplay:10.37,2013-05-03 15:30:00,
2013-05-04 03:45:00,-9.9,-14.9,29.26,NNE,31,16.0,16.0,78,0.00,CLR,,0.00,WeatherDisplay:10.37,2013-05-03 15:45:00,
2013-05-04 04:00:00,-9.7,-14.9,29.26,NE,35,18.0,18.0,77,0.00,CLR,,0.00,WeatherDisplay:10.37,2013-05-03 16:00:00,
2013-05-04 04:15:00,-10.0,-15.3,29.25,NE,36,17.0,18.0,77,0.00,CLR,,0.00,WeatherDisplay:10.37,2013-05-03 16:15:00,
2013-05-04 04:30:00,-10.3,-15.5,29.26,NNE,31,16.0,17.0,77,0.00,CLR,,0.00,WeatherDisplay:10.37,2013-05-03 16:30:00,
2013-05-04 04:45:00,-10.1,-15.3,29.26,NE,39,15.0,16.0,77,0.00,CLR,,0.00,WeatherDisplay:10.37,2013-05-03 16:45:00,
2013-05-04 05:00:00,-10.3,-15.5,29.26,NE,34,15.0,15.0,77,0.00,CLR,,0.00,WeatherDisplay:10.37,2013-05-03 17:00:00,
2013-05-04 05:15:00,-10.0,-15.5,29.26,NNE,30,16.0,16.0,76,0.00,CLR,,0.00,WeatherDisplay:10.37,2013-05-03 17:15:00,
2013-05-04 05:30:00,-9.4,-14.9,29.25,NE,39,17.0,17.0,76,0.00,CLR,,0.00,WeatherDisplay:10.37,2013-05-03 17:30:00,
2013-05-04 05:45:00,-10.2,-15.5,29.26,NNE,32,16.0,17.0,77,0.00,CLR,,0.00,WeatherDisplay:10.37,2013-05-03 17:45:00,
2013-05-04 06:00:00,-10.1,-15.4,29.25,NE,36,16.0,16.0,77,0.00,CLR,,0.00,WeatherDisplay:10.37,2013-05-03 18:00:00,
2013-05-04 06:15:00,-9.8,-14.8,29.26,NNE,28,20.0,20.0,78,0.00,CLR,,0.00,WeatherDisplay:10.37,2013-05-03 18:15:00,
2013-05-04 06:30:00,-9.9,-14.9,29.26,NNE,33,18.0,20.0,78,0.00,CLR,,0.00,WeatherDisplay:10.37,2013-05-03 18:30:00,
2013-05-04 06:45:00,-10.0,-15.0,29.26,NNE,23,23.0,23.0,78,0.00,CLR,,0.00,WeatherDisplay:10.37,2013-05-03 18:45:00,
2013-05-04 07:00:00,-9.9,-15.1,29.26,NNE,24,22.0,23.0,77,0.00,CLR,,0.00,WeatherDisplay:10.37,2013-05-03 19:00:00,
2013-05-04 07:15:00,-9.9,-15.1,29.26,NNE,25,22.0,22.0,77,0.00,CLR,,0.00,WeatherDisplay:10.37,2013-05-03 19:15:00,
2013-05-04 07:30:00,-9.7,-14.9,29.26,NNE,25,22.0,22.0,77,0.00,CLR,,0.00,WeatherDisplay:10.37,2013-05-03 19:30:00,
2013-05-04 07:45:00,-8.9,-13.9,29.26,NNE,28,21.0,22.0,78,0.00,CLR,,0.00,WeatherDisplay:10.37,2013-05-03 19:45:00,
2013-05-04 08:00:00,-8.5,-13.5,29.26,NNE,27,22.0,22.0,78,0.00,CLR,,0.00,WeatherDisplay:10.37,2013-05-03 20:00:00,
2013-05-04 08:15:00,-8.1,-12.9,29.26,NNE,27,22.0,22.0,79,0.00,CLR,,0.00,WeatherDisplay:10.37,2013-05-03 20:15:00,
2013-05-04 08:30:00,-8.1,-12.8,29.26,NNE,29,23.0,23.0,79,0.00,CLR,,0.00,WeatherDisplay:10.37,2013-05-03 20:30:00,
2013-05-04 08:45:00,-8.7,-13.4,29.27,NE,35,18.0,23.0,79,0.00,CLR,,0.00,WeatherDisplay:10.37,2013-05-03 20:45:00,
2013-05-04 09:00:00,-8.9,-13.6,29.27,NE,34,18.0,18.0,79,0.00,CLR,,0.00,WeatherDisplay:10.37,2013-05-03 21:00:00,
2013-05-04 09:15:00,-9.1,-14.1,29.27,NE,37,18.0,18.0,78,0.00,CLR,,0.00,WeatherDisplay:10.37,2013-05-03 21:15:00,
2013-05-04 09:30:00,-9.5,-14.7,29.27,NE,39,16.0,18.0,77,0.00,CLR,,0.00,WeatherDisplay:10.37,2013-05-03 21:30:00,
2013-05-04 09:45:00,-9.9,-15.2,29.27,NE,38,16.0,16.0,77,0.00,CLR,,0.00,WeatherDisplay:10.37,2013-05-03 21:45:00,
2013-05-04 10:00:00,-10.1,-15.4,29.28,NE,34,17.0,17.0,77,0.00,CLR,,0.00,WeatherDisplay:10.37,2013-05-03 22:00:00,
2013-05-04 10:15:00,-10.4,-15.9,29.27,NE,35,17.0,17.0,76,0.00,CLR,,0.00,WeatherDisplay:10.37,2013-05-03 22:15:00,
2013-05-04 10:30:00,-10.4,-15.9,29.27,NE,34,17.0,17.0,76,0.00,CLR,,0.00,WeatherDisplay:10.37,2013-05-03 22:30:00,
2013-05-04 10:45:00,-10.8,-16.0,29.28,NE,36,17.0,17.0,77,0.00,CLR,,0.00,WeatherDisplay:10.37,2013-05-03 22:45:00,
2013-05-04 11:00:00,-10.7,-15.9,29.28,NNE,23,18.0,18.0,77,0.00,CLR,,0.00,WeatherDisplay:10.37,2013-05-03 23:00:00,
2013-05-04 11:15:00,-10.5,-16.0,29.27,NNE,23,18.0,18.0,76,0.00,CLR,,0.00,WeatherDisplay:10.37,2013-05-03 23:15:00,
2013-05-04 11:30:00,-10.6,-16.1,29.27,NNE,24,18.0,18.0,76,0.00,CLR,,0.00,WeatherDisplay:10.37,2013-05-03 23:30:00,
2013-05-04 11:45:00,-10.5,-16.0,29.27,NNE,22,18.0,18.0,76,0.00,CLR,,0.00,WeatherDisplay:10.37,2013-05-03 23:45:00,
2013-05-04 12:00:00,-10.6,-16.1,29.27,NNE,24,18.0,18.0,76,0.00,CLR,,0.00,WeatherDisplay:10.37,2013-05-04 00:00:00,
2013-05-04 12:15:00,-10.3,-15.7,29.27,NNE,24,18.0,18.0,76,0.00,CLR,,0.00,WeatherDisplay:10.37,2013-05-04 00:15:00,
2013-05-04 12:30:00,-10.3,-15.7,29.28,NNE,24,20.0,20.0,76,0.00,CLR,,0.00,WeatherDisplay:10.37,2013-05-04 00:30:00,
2013-05-04 12:45:00,-10.0,-15.5,29.28,NNE,23,20.0,20.0,76,0.00,CLR,,0.00,WeatherDisplay:10.37,2013-05-04 00:45:00,
2013-05-04 13:00:00,-9.8,-15.3,29.28,NNE,24,20.0,20.0,76,0.00,CLR,,0.00,WeatherDisplay:10.37,2013-05-04 01:00:00,
2013-05-04 13:15:00,-9.4,-14.7,29.28,NNE,24,20.0,20.0,77,0.00,CLR,,0.00,WeatherDisplay:10.37,2013-05-04 01:15:00,
2013-05-04 13:30:00,-9.3,-14.6,29.28,NNE,30,18.0,20.0,77,0.00,CLR,,0.00,WeatherDisplay:10.37,2013-05-04 01:30:00,
2013-05-04 13:45:00,-9.5,-14.8,29.29,NNE,31,17.0,18.0,77,0.00,CLR,,0.00,WeatherDisplay:10.37,2013-05-04 01:45:00,
2013-05-04 14:00:00,-9.5,-14.8,29.29,NNE,31,18.0,18.0,77,0.00,CLR,,0.00,WeatherDisplay:10.37,2013-05-04 02:00:00,
2013-05-04 14:15:00,-9.6,-14.8,29.29,NNE,31,21.0,21.0,77,0.00,CLR,,0.00,WeatherDisplay:10.37,2013-05-04 02:15:00,
2013-05-04 14:30:00,-9.6,-14.9,29.29,NNE,31,21.0,21.0,77,0.00,CLR,,0.00,WeatherDisplay:10.37,2013-05-04 02:30:00,
2013-05-04 14:45:00,-9.7,-15.0,29.29,NNE,27,23.0,23.0,77,0.00,CLR,,0.00,WeatherDisplay:10.37,2013-05-04 02:45:00,
2013-05-04 15:00:00,-9.8,-15.0,29.29,NNE,27,23.0,23.0,77,0.00,,,0.00,WeatherDisplay:10.37,2013-05-04 03:00:00,
2013-05-04 15:15:00,-10.0,-15.3,29.29,NNE,29,24.0,24.0,77,0.00,,,0.00,WeatherDisplay:10.37,2013-05-04 03:15:00,
2013-05-04 15:30:00,-10.2,-15.4,29.30,NNE,28,25.0,25.0,77,0.00,,,0.00,WeatherDisplay:10.37,2013-05-04 03:30:00,
2013-05-04 15:45:00,-10.9,-16.1,29.30,NNE,26,26.0,26.0,77,0.00,,,0.00,WeatherDisplay:10.37,2013-05-04 03:45:00,
2013-05-04 16:00:00,-11.0,-16.2,29.30,NNE,26,28.0,28.0,77,0.00,,,0.00,WeatherDisplay:10.37,2013-05-04 04:00:00,
2013-05-04 16:15:00,-10.9,-16.4,29.30,NNE,25,26.0,28.0,76,0.00,,,0.00,WeatherDisplay:10.37,2013-05-04 04:15:00,
2013-05-04 16:30:00,-10.9,-16.4,29.30,NNE,27,25.0,26.0,76,0.00,,,0.00,WeatherDisplay:10.37,2013-05-04 04:30:00,
2013-05-04 16:45:00,-10.9,-16.4,29.30,NNE,30,24.0,25.0,76,0.00,,,0.00,WeatherDisplay:10.37,2013-05-04 04:45:00,
2013-05-04 17:00:00,-11.0,-16.7,29.30,NNE,31,23.0,24.0,75,0.00,,,0.00,WeatherDisplay:10.37,2013-05-04 05:00:00,
2013-05-04 17:15:00,-11.0,-16.4,29.30,NNE,30,24.0,24.0,76,0.00,,,0.00,WeatherDisplay:10.37,2013-05-04 05:15:00,
2013-05-04 17:30:00,-10.7,-16.4,29.30,NNE,32,23.0,24.0,75,0.00,,,0.00,WeatherDisplay:10.37,2013-05-04 05:30:00,
2013-05-04 17:45:00,-10.6,-16.3,29.30,NNE,33,22.0,23.0,75,0.00,CLR,,0.00,WeatherDisplay:10.37,2013-05-04 05:45:00,
2013-05-04 18:00:00,-10.9,-16.6,29.30,NNE,32,23.0,23.0,75,0.00,CLR,,0.00,WeatherDisplay:10.37,2013-05-04 06:00:00,
2013-05-04 18:15:00,-10.0,-15.7,29.30,NNE,33,22.0,23.0,75,0.00,CLR,,0.00,WeatherDisplay:10.37,2013-05-04 06:15:00,
2013-05-04 18:30:00,-10.3,-16.0,29.30,NE,34,20.0,22.0,75,0.00,CLR,,0.00,WeatherDisplay:10.37,2013-05-04 06:30:00,
2013-05-04 18:45:00,-10.4,-16.4,29.30,NE,34,18.0,20.0,74,0.00,CLR,,0.00,WeatherDisplay:10.37,2013-05-04 06:45:00,
2013-05-04 19:00:00,-10.4,-16.4,29.30,NE,35,17.0,18.0,74,0.00,CLR,,0.00,WeatherDisplay:10.37,2013-05-04 07:00:00,
2013-05-04 19:15:00,-10.7,-16.7,29.30,NE,36,17.0,17.0,74,0.00,CLR,,0.00,WeatherDisplay:10.37,2013-05-04 07:15:00,
2013-05-04 19:30:00,-10.7,-16.4,29.30,NE,34,17.0,17.0,75,0.00,CLR,,0.00,WeatherDisplay:10.37,2013-05-04 07:30:00,
2013-05-04 19:45:00,-10.0,-16.0,29.30,NNE,29,18.0,18.0,74,0.00,CLR,,0.00,WeatherDisplay:10.37,2013-05-04 07:45:00,
2013-05-04 20:00:00,-9.9,-15.9,29.30,NNE,32,17.0,18.0,74,0.00,CLR,,0.00,WeatherDisplay:10.37,2013-05-04 08:00:00,
2013-05-04 20:15:00,-9.6,-15.7,29.30,NNE,25,21.0,21.0,74,0.00,CLR,,0.00,WeatherDisplay:10.37,2013-05-04 08:15:00,
2013-05-04 20:30:00,-9.5,-15.5,29.30,NNE,25,21.0,21.0,74,0.00,CLR,,0.00,WeatherDisplay:10.37,2013-05-04 08:30:00,
2013-05-04 20:45:00,-8.3,-14.3,29.30,NNE,22,20.0,21.0,74,0.00,CLR,,0.00,WeatherDisplay:10.37,2013-05-04 08:45:00,
2013-05-04 21:00:00,-8.1,-14.5,29.30,NNE,26,18.0,20.0,73,0.00,CLR,,0.00,WeatherDisplay:10.37,2013-05-04 09:00:00,
2013-05-04 21:15:00,-7.4,-13.7,29.30,NNE,26,18.0,18.0,73,0.00,CLR,,0.00,WeatherDisplay:10.37,2013-05-04 09:15:00,
2013-05-04 21:30:00,-7.1,-13.4,29.31,NNE,29,17.0,18.0,73,0.00,CLR,,0.00,WeatherDisplay:10.37,2013-05-04 09:30:00,
2013-05-04 21:45:00,-8.7,-15.3,29.31,NE,41,12.0,17.0,72,0.00,CLR,,0.00,WeatherDisplay:10.37,2013-05-04 09:45:00,
2013-05-04 22:00:00,-11.2,-17.1,29.31,NE,43,12.0,12.0,74,0.00,CLR,,0.00,WeatherDisplay:10.37,2013-05-04 10:00:00,
2013-05-04 22:15:00,-13.6,-19.0,29.31,NE,41,10.0,12.0,76,0.00,CLR,,0.00,WeatherDisplay:10.37,2013-05-04 10:15:00,
2013-05-04 22:30:00,-14.4,-19.7,29.31,NE,41,9.0,10.0,76,0.00,CLR,,0.00,WeatherDisplay:10.37,2013-05-04 10:30:00,
2013-05-04 22:45:00,-14.3,-19.2,29.31,NE,41,10.0,10.0,78,0.00,CLR,,0.00,WeatherDisplay:10.37,2013-05-04 10:45:00,
2013-05-04 23:00:00,-12.6,-17.3,29.31,NE,41,12.0,12.0,79,0.00,CLR,,0.00,WeatherDisplay:10.37,2013-05-04 11:00:00,
2013-05-04 23:15:00,-12.3,-17.0,29.31,NNE,32,13.0,13.0,79,0.00,CLR,,0.00,WeatherDisplay:10.37,2013-05-04 11:15:00,
2013-05-04 23:30:00,-10.4,-15.2,29.31,NNE,33,13.0,13.0,79,0.00,CLR,,0.00,WeatherDisplay:10.37,2013-05-04 11:30:00,
2013-05-04 23:46:00,-11.3,-16.5,29.31,NE,34,13.0,13.0,77,0.00,CLR,,0.00,WeatherDisplay:10.37,2013-05-04 11:46:00,